Time;durP1;ratioP1;P1;durP2;ratioP2;P2;SDS_P1;SDS_P2;PMS_P1;PMS_P2;Temp;Humidity;BMP_temperature;BMP_pressure;BME280_temperature;BME280_humidity;BME280_pressure;Samples;Min_cycle;Max_cycle;Signal;HPM_P1;HPM_P2
2024/03/08 00:02:02;;;;;;;23.13;9.50;;;;;;;3.48;100.00;96155.09;5035371;28;20554;-70
2024/03/08 00:04:30;;;;;;;19.23;8.37;;;;;;;3.39;100.00;96143.69;5034652;28;20242;-70
2024/03/08 00:06:57;;;;;;;22.13;8.60;;;;;;;3.37;100.00;96150.00;5036083;28;20202;-70
2024/03/08 00:09:23;;;;;;;21.77;8.90;;;;;;;3.41;100.00;96151.38;5036066;28;20273;-70
2024/03/08 00:11:52;;;;;;;26.67;9.23;;;;;;;3.35;100.00;96146.72;5035611;28;20224;-71
2024/03/08 00:14:18;;;;;;;20.73;8.20;;;;;;;3.29;100.00;96144.66;5035219;28;20224;-70
2024/03/08 00:16:45;;;;;;;22.80;9.20;;;;;;;3.32;100.00;96142.59;5036153;28;20227;-70
2024/03/08 00:19:11;;;;;;;21.13;9.20;;;;;;;3.29;100.00;96147.25;5034859;28;20220;-70
2024/03/08 00:21:39;;;;;;;25.20;9.20;;;;;;;3.48;100.00;96150.69;5035881;28;20304;-70
2024/03/08 00:24:06;;;;;;;24.40;8.33;;;;;;;3.45;100.00;96147.53;5035051;28;20228;-70
2024/03/08 00:26:33;;;;;;;24.40;8.53;;;;;;;3.35;100.00;96139.72;5035882;28;20203;-70
2024/03/08 00:28:59;;;;;;;23.33;8.83;;;;;;;3.13;100.00;96141.72;5035610;28;20242;-70
2024/03/08 00:31:26;;;;;;;26.37;9.00;;;;;;;3.18;100.00;96142.16;5035699;28;20210;-70
2024/03/08 00:33:52;;;;;;;25.83;9.50;;;;;;;3.28;100.00;96140.38;5035410;28;20226;-71
2024/03/08 00:36:20;;;;;;;22.07;8.60;;;;;;;3.30;100.00;96128.88;5034447;28;20286;-70
2024/03/08 00:38:47;;;;;;;22.13;8.77;;;;;;;3.37;100.00;96131.75;5035765;28;20268;-70
2024/03/08 00:41:14;;;;;;;24.93;8.50;;;;;;;3.12;100.00;96125.31;5035365;28;20214;-70
2024/03/08 00:43:39;;;;;;;19.30;8.27;;;;;;;3.10;100.00;96126.38;5035262;28;20229;-70
2024/03/08 00:46:06;;;;;;;21.70;8.53;;;;;;;3.10;100.00;96123.78;5034956;28;20214;-70
2024/03/08 00:48:32;;;;;;;21.50;8.20;;;;;;;3.01;100.00;96109.78;5035738;28;20206;-70
2024/03/08 00:50:59;;;;;;;24.03;8.93;;;;;;;3.05;100.00;96120.75;5035105;28;20218;-70
2024/03/08 00:53:25;;;;;;;20.87;8.57;;;;;;;3.07;100.00;96116.25;5035311;28;20479;-70
2024/03/08 00:55:54;;;;;;;22.27;9.13;;;;;;;3.09;100.00;96109.97;5035653;28;20198;-70
2024/03/08 00:58:21;;;;;;;20.10;7.90;;;;;;;2.92;100.00;96107.19;5039452;28;20711;-70
2024/03/08 01:00:47;;;;;;;22.93;9.20;;;;;;;2.82;100.00;96106.34;5039604;28;20201;-70
2024/03/08 01:03:14;;;;;;;27.07;9.63;;;;;;;2.76;100.00;96104.28;5038849;28;20220;-70
2024/03/08 01:05:40;;;;;;;23.27;9.00;;;;;;;2.77;100.00;96097.28;5038545;28;20212;-70
2024/03/08 01:08:07;;;;;;;21.63;9.13;;;;;;;2.80;100.00;96097.84;5038728;28;20206;-70
2024/03/08 01:10:34;;;;;;;24.07;8.37;;;;;;;2.72;100.00;96089.06;5039866;28;20539;-70
2024/03/08 01:13:02;;;;;;;26.43;8.77;;;;;;;2.75;100.00;96087.03;5038932;28;20212;-70
2024/03/08 01:15:28;;;;;;;23.43;8.37;;;;;;;2.60;100.00;96096.16;5037648;28;20672;-70
2024/03/08 01:17:55;;;;;;;27.97;9.73;;;;;;;2.61;100.00;96086.56;5038941;28;20228;-70
2024/03/08 01:20:21;;;;;;;22.90;8.37;;;;;;;2.63;100.00;96085.47;5039161;28;20210;-70
2024/03/08 01:22:48;;;;;;;25.83;8.60;;;;;;;2.54;100.00;96070.66;5038579;28;20212;-70
2024/03/08 01:25:14;;;;;;;22.43;8.33;;;;;;;2.58;100.00;96079.88;5037934;28;20210;-70
2024/03/08 01:27:41;;;;;;;22.90;9.37;;;;;;;2.62;100.00;96081.25;5039199;28;20231;-70
2024/03/08 01:30:10;;;;;;;26.37;9.33;;;;;;;2.83;100.00;96081.16;5038335;28;20295;-70
2024/03/08 01:32:37;;;;;;;23.83;8.20;;;;;;;2.66;100.00;96074.81;5038814;28;20488;-70
2024/03/08 01:35:04;;;;;;;28.30;9.37;;;;;;;2.79;100.00;96070.19;5037678;28;20243;-70
2024/03/08 01:37:30;;;;;;;24.60;8.87;;;;;;;2.80;100.00;96066.63;5038861;28;20231;-70
2024/03/08 01:39:56;;;;;;;25.17;7.80;;;;;;;2.90;100.00;96061.44;5038340;28;20207;-70
2024/03/08 01:42:23;;;;;;;24.70;8.23;;;;;;;2.92;100.00;96064.75;5038467;28;20766;-70
2024/03/08 01:44:49;;;;;;;21.20;8.10;;;;;;;2.61;100.00;96063.16;5037519;28;20819;-70
2024/03/08 01:47:18;;;;;;;21.17;7.43;;;;;;;2.75;100.00;96055.81;5038531;28;20690;-70
2024/03/08 01:49:45;;;;;;;23.43;8.43;;;;;;;2.40;100.00;96053.81;5039059;28;20205;-70
2024/03/08 01:52:11;;;;;;;19.77;7.83;;;;;;;2.55;100.00;96051.50;5038538;28;20207;-70
2024/03/08 01:54:40;;;;;;;16.70;7.50;;;;;;;2.75;100.00;96048.00;5037644;28;20221;-70
2024/03/08 01:57:07;;;;;;;21.23;8.50;;;;;;;2.84;100.00;96047.19;5037812;28;20225;-70
2024/03/08 01:59:34;;;;;;;22.43;8.20;;;;;;;2.78;100.00;96044.31;5038339;28;20197;-70
2024/03/08 02:02:02;;;;;;;21.70;8.13;;;;;;;2.91;100.00;96048.28;5038178;28;20202;-70
2024/03/08 02:04:31;;;;;;;21.57;8.23;;;;;;;3.09;100.00;96049.25;5037102;28;20473;-70
2024/03/08 02:06:58;;;;;;;19.83;7.77;;;;;;;2.89;100.00;96047.63;5037528;28;20214;-69
2024/03/08 02:09:25;;;;;;;22.87;8.17;;;;;;;3.00;100.00;96038.84;5037919;28;20770;-69
2024/03/08 02:11:54;;;;;;;19.90;7.47;;;;;;;2.98;100.00;96041.59;5038596;28;20226;-70
2024/03/08 02:14:21;;;;;;;23.90;7.97;;;;;;;3.02;100.00;96037.75;5036681;28;20229;-70
2024/03/08 02:16:47;;;;;;;18.37;7.83;;;;;;;2.99;100.00;96040.63;5037564;28;20664;-70
2024/03/08 02:19:13;;;;;;;27.53;8.83;;;;;;;3.01;100.00;96030.09;5038135;28;20682;-70
2024/03/08 02:21:41;;;;;;;21.00;8.23;;;;;;;2.99;100.00;96035.41;5038330;28;20231;-70
2024/03/08 02:24:08;;;;;;;21.73;7.83;;;;;;;2.95;100.00;96035.84;5036577;28;20526;-69
2024/03/08 02:26:34;;;;;;;26.27;8.63;;;;;;;2.84;100.00;96025.53;5037915;28;20201;-70
2024/03/08 02:29:01;;;;;;;19.47;8.03;;;;;;;2.82;100.00;96030.88;5037812;28;20791;-70
2024/03/08 02:31:28;;;;;;;17.40;7.50;;;;;;;2.37;100.00;96025.44;5037712;28;20201;-70
2024/03/08 02:33:54;;;;;;;22.07;8.00;;;;;;;2.57;100.00;96028.81;5037721;28;20222;-70
2024/03/08 02:36:21;;;;;;;27.63;8.07;;;;;;;2.60;100.00;96028.53;5036704;28;20201;-69
2024/03/08 02:38:49;;;;;;;18.23;7.33;;;;;;;2.79;100.00;96018.16;5037501;28;20226;-70
2024/03/08 02:41:15;;;;;;;20.73;7.47;;;;;;;2.69;100.00;96013.91;5037541;28;20213;-69
2024/03/08 02:43:42;;;;;;;18.87;7.53;;;;;;;2.62;100.00;96020.59;5037485;28;20711;-70
2024/03/08 02:46:09;;;;;;;20.57;7.47;;;;;;;2.66;100.00;96019.34;5036711;28;20674;-70
2024/03/08 02:48:36;;;;;;;22.23;8.10;;;;;;;2.66;100.00;96017.59;5037154;28;20319;-70
2024/03/08 02:51:03;;;;;;;17.17;6.67;;;;;;;2.75;100.00;96022.00;5037581;28;20206;-70
2024/03/08 02:53:29;;;;;;;20.47;7.07;;;;;;;2.66;100.00;96011.56;5037067;28;20504;-70
2024/03/08 02:55:57;;;;;;;20.70;8.07;;;;;;;2.79;100.00;96012.97;5036274;28;20404;-70
2024/03/08 02:58:24;;;;;;;20.70;6.97;;;;;;;2.55;100.00;96004.69;5036690;28;20692;-70
2024/03/08 03:00:50;;;;;;;17.77;7.30;;;;;;;2.44;100.00;96002.22;5037218;28;20252;-70
2024/03/08 03:03:17;;;;;;;17.00;7.53;;;;;;;2.49;100.00;95994.00;5036264;28;20225;-70
2024/03/08 03:05:43;;;;;;;19.70;6.77;;;;;;;2.36;100.00;95997.84;5036263;28;20205;-70
2024/03/08 03:08:11;;;;;;;20.13;8.13;;;;;;;2.44;100.00;95994.44;5037312;28;20794;-70
2024/03/08 03:10:38;;;;;;;19.13;7.40;;;;;;;2.47;100.00;95991.56;5036933;28;20695;-70
2024/03/08 03:13:06;;;;;;;21.40;7.83;;;;;;;2.59;100.00;95995.66;5036389;28;20210;-70
2024/03/08 03:15:33;;;;;;;19.27;7.50;;;;;;;2.43;100.00;95997.16;5036028;28;20197;-70
2024/03/08 03:18:00;;;;;;;18.67;7.20;;;;;;;2.45;100.00;95995.25;5036778;28;20295;-69
2024/03/08 03:20:32;;;;;;;21.70;7.50;;;;;;;2.50;100.00;95990.47;5035572;28;20749;-70
2024/03/08 03:23:00;;;;;;;18.63;7.43;;;;;;;2.45;100.00;95998.66;5035045;28;20514;-70
2024/03/08 03:25:32;;;;;;;24.87;8.37;;;;;;;2.51;100.00;95992.13;5036374;28;20209;-70
2024/03/08 03:27:59;;;;;;;19.93;8.47;;;;;;;2.27;100.00;95978.66;5036092;28;20222;-70
2024/03/08 03:30:30;;;;;;;20.70;7.53;;;;;;;2.33;100.00;95987.69;5036209;28;20232;-70
2024/03/08 03:33:00;;;;;;;21.10;7.70;;;;;;;1.96;100.00;95984.00;5037560;28;20689;-70
2024/03/08 03:35:27;;;;;;;20.00;8.23;;;;;;;2.00;100.00;95990.63;5035489;28;20220;-70
2024/03/08 03:38:05;;;;;;;22.03;8.20;;;;;;;1.90;100.00;95989.75;5035815;28;20785;-69
2024/03/08 03:40:32;;;;;;;19.37;7.33;;;;;;;2.07;100.00;95981.34;5036315;28;20205;-70
2024/03/08 03:42:59;;;;;;;22.63;8.37;;;;;;;2.17;100.00;95983.00;5036345;28;20448;-70
2024/03/08 03:45:27;;;;;;;22.37;8.17;;;;;;;2.15;100.00;95982.31;5035494;28;20219;-70
2024/03/08 03:47:53;;;;;;;23.37;8.37;;;;;;;1.89;100.00;95988.91;5036627;28;20228;-70
2024/03/08 03:50:20;;;;;;;18.17;7.00;;;;;;;2.16;100.00;95983.94;5035959;28;20209;-70
2024/03/08 03:52:47;;;;;;;21.37;8.33;;;;;;;2.15;100.00;95979.72;5036130;28;20198;-70
2024/03/08 03:55:13;;;;;;;20.70;8.77;;;;;;;2.18;100.00;95981.25;5035398;28;20216;-70
2024/03/08 03:57:40;;;;;;;20.40;7.97;;;;;;;2.04;100.00;95979.00;5035990;28;20262;-70
2024/03/08 04:00:10;;;;;;;19.63;8.07;;;;;;;2.08;100.00;95982.97;5036049;28;20212;-70
2024/03/08 04:02:38;;;;;;;22.33;8.40;;;;;;;2.23;100.00;95976.44;5035667;28;20205;-70
2024/03/08 04:05:06;;;;;;;22.23;8.30;;;;;;;2.13;100.00;95971.22;5035036;28;20228;-70
2024/03/08 04:07:33;;;;;;;21.70;7.83;;;;;;;2.14;100.00;95972.88;5035912;28;20482;-70
2024/03/08 04:09:59;;;;;;;21.27;8.57;;;;;;;1.90;100.00;95969.78;5035244;28;20209;-70
2024/03/08 04:12:26;;;;;;;26.40;9.07;;;;;;;1.99;100.00;95963.00;5035771;28;20213;-70
2024/03/08 04:14:53;;;;;;;27.27;9.30;;;;;;;2.13;100.00;95965.22;5034827;28;20333;-70
2024/03/08 04:17:19;;;;;;;23.20;8.97;;;;;;;2.17;100.00;95966.59;5035683;28;20270;-70
2024/03/08 04:19:48;;;;;;;20.37;7.80;;;;;;;2.40;100.00;95962.81;5035921;28;20209;-70
2024/03/08 04:22:14;;;;;;;24.10;9.03;;;;;;;2.38;100.00;95964.72;5035467;28;20215;-70
2024/03/08 04:24:41;;;;;;;27.27;8.90;;;;;;;2.43;100.00;95964.19;5035037;28;20216;-70
2024/03/08 04:27:07;;;;;;;21.53;7.57;;;;;;;2.28;100.00;95963.88;5035966;28;20201;-70
2024/03/08 04:29:34;;;;;;;21.10;8.40;;;;;;;2.44;100.00;95963.22;5035268;28;20583;-70
2024/03/08 04:32:03;;;;;;;22.57;7.63;;;;;;;2.44;100.00;95958.03;5035615;28;20200;-70
2024/03/08 04:34:30;;;;;;;19.50;7.23;;;;;;;2.53;100.00;95953.78;5034908;28;20232;-70
2024/03/08 04:36:59;;;;;;;21.77;8.37;;;;;;;2.78;100.00;95961.88;5035139;28;20204;-70
2024/03/08 04:39:27;;;;;;;25.00;8.13;;;;;;;2.77;100.00;95951.59;5034908;28;20740;-70
2024/03/08 04:41:56;;;;;;;15.47;6.90;;;;;;;2.88;100.00;95948.84;5035851;28;20868;-70
2024/03/08 04:44:24;;;;;;;22.73;8.13;;;;;;;2.74;100.00;95949.28;5033196;28;20224;-70
2024/03/08 04:46:51;;;;;;;22.30;7.53;;;;;;;2.66;100.00;95941.31;5035000;28;20785;-70
2024/03/08 04:49:17;;;;;;;21.73;7.73;;;;;;;2.56;100.00;95943.94;5036105;28;20228;-70
2024/03/08 04:51:44;;;;;;;19.90;7.70;;;;;;;2.56;100.00;95938.75;5035416;28;20212;-70
2024/03/08 04:54:12;;;;;;;23.43;9.53;;;;;;;2.66;100.00;95939.56;5034484;28;20233;-70
2024/03/08 04:56:39;;;;;;;23.27;8.27;;;;;;;2.60;100.00;95937.50;5035651;28;20208;-71
2024/03/08 04:59:07;;;;;;;22.33;8.83;;;;;;;2.48;100.00;95933.41;5035603;28;20205;-70
2024/03/08 05:01:37;;;;;;;23.50;9.10;;;;;;;2.51;100.00;95938.31;5035069;28;20204;-69
2024/03/08 05:04:04;;;;;;;25.17;9.20;;;;;;;2.55;100.00;95926.69;5033606;28;20317;-70
2024/03/08 05:06:30;;;;;;;25.93;9.90;;;;;;;2.53;100.00;95933.81;5035339;28;20201;-69
2024/03/08 05:08:57;;;;;;;22.03;8.07;;;;;;;2.60;100.00;95934.91;5035203;28;20228;-70
2024/03/08 05:11:25;;;;;;;23.17;8.47;;;;;;;2.83;100.00;95931.06;5034789;28;20208;-70
2024/03/08 05:13:51;;;;;;;22.63;8.87;;;;;;;2.73;100.00;95935.44;5035247;28;20708;-69
2024/03/08 05:16:18;;;;;;;25.30;9.40;;;;;;;2.79;100.00;95927.09;5034452;28;20197;-70
2024/03/08 05:18:46;;;;;;;24.10;9.77;;;;;;;2.95;100.00;95924.75;5034556;28;20208;-70
2024/03/08 05:21:13;;;;;;;25.90;9.20;;;;;;;2.97;100.00;95924.63;5035195;28;20213;-70
2024/03/08 05:23:39;;;;;;;25.03;9.30;;;;;;;2.73;100.00;95925.03;5035226;28;20221;-71
2024/03/08 05:26:06;;;;;;;21.00;8.33;;;;;;;2.81;100.00;95926.97;5034114;28;20703;-70
2024/03/08 05:28:34;;;;;;;21.43;8.83;;;;;;;3.00;100.00;95921.75;5035149;28;20596;-71
2024/03/08 05:31:01;;;;;;;23.10;9.27;;;;;;;2.76;100.00;95932.59;5035017;28;20217;-70
2024/03/08 05:33:27;;;;;;;24.10;9.00;;;;;;;2.66;100.00;95923.13;5034925;28;20322;-70
2024/03/08 05:35:54;;;;;;;27.17;8.90;;;;;;;2.69;100.00;95918.47;5034922;28;20207;-70
2024/03/08 05:38:21;;;;;;;23.20;8.90;;;;;;;2.91;100.00;95920.78;5035348;28;20454;-70
2024/03/08 05:40:47;;;;;;;26.83;9.40;;;;;;;2.89;100.00;95920.13;5035018;28;20995;-70
2024/03/08 05:43:17;;;;;;;28.17;10.17;;;;;;;3.09;100.00;95911.31;5037288;28;20225;-70
2024/03/08 05:45:45;;;;;;;28.80;9.63;;;;;;;2.90;100.00;95916.53;5038016;28;20234;-70
2024/03/08 05:48:12;;;;;;;21.40;7.07;;;;;;;2.56;100.00;95920.53;5038366;28;20229;-70
2024/03/08 05:50:39;;;;;;;24.77;9.67;;;;;;;2.66;100.00;95921.34;5038148;28;20201;-70
2024/03/08 05:53:06;;;;;;;25.53;10.13;;;;;;;2.89;100.00;95922.72;5039303;28;20273;-69
2024/03/08 05:55:34;;;;;;;28.97;11.80;;;;;;;2.98;100.00;95924.50;5038465;28;20210;-69
2024/03/08 05:58:01;;;;;;;21.63;8.87;;;;;;;2.96;100.00;95920.38;5038005;28;21250;-69
2024/03/08 06:00:27;;;;;;;24.13;9.13;;;;;;;3.01;100.00;95924.19;5038529;28;20679;-70
2024/03/08 06:02:55;;;;;;;22.93;9.70;;;;;;;3.35;100.00;95917.56;5039356;28;20207;-70
2024/03/08 06:05:23;;;;;;;23.10;9.37;;;;;;;3.05;100.00;95925.56;5037204;28;20210;-70
2024/03/08 06:07:49;;;;;;;28.53;8.87;;;;;;;3.16;100.00;95909.81;5037437;28;20670;-70
2024/03/08 06:10:17;;;;;;;22.17;9.13;;;;;;;3.03;100.00;95920.50;5037766;28;20647;-69
2024/03/08 06:12:45;;;;;;;25.73;10.33;;;;;;;3.15;100.00;95915.97;5038181;28;20202;-69
2024/03/08 06:15:14;;;;;;;23.23;8.33;;;;;;;3.18;100.00;95910.47;5037558;28;20590;-70
2024/03/08 06:17:40;;;;;;;27.17;10.27;;;;;;;3.13;100.00;95923.06;5039032;28;20210;-71
2024/03/08 06:20:12;;;;;;;25.93;9.03;;;;;;;3.38;100.00;95906.88;5038360;28;20211;-70
2024/03/08 06:22:40;;;;;;;28.20;10.37;;;;;;;3.30;100.00;95915.38;5038470;28;20238;-70
2024/03/08 06:25:07;;;;;;;31.10;11.60;;;;;;;3.28;100.00;95921.69;5037774;28;20226;-71
2024/03/08 06:27:34;;;;;;;25.03;9.37;;;;;;;3.38;100.00;95917.28;5038800;28;20211;-70
2024/03/08 06:30:00;;;;;;;25.07;9.27;;;;;;;3.34;100.00;95908.13;5038743;28;20229;-71
2024/03/08 06:32:27;;;;;;;26.53;10.30;;;;;;;3.36;100.00;95913.97;5038068;28;20680;-71
2024/03/08 06:34:53;;;;;;;25.23;9.13;;;;;;;3.35;100.00;95907.97;5037240;28;20229;-71
2024/03/08 06:37:21;;;;;;;28.67;9.90;;;;;;;3.65;100.00;95915.53;5038429;28;20206;-71
2024/03/08 06:39:48;;;;;;;26.17;9.20;;;;;;;3.44;100.00;95916.72;5038190;28;20196;-71
2024/03/08 06:42:15;;;;;;;25.97;8.80;;;;;;;3.31;100.00;95916.19;5038139;28;20212;-71
2024/03/08 06:44:48;;;;;;;24.50;9.20;;;;;;;3.21;100.00;95912.81;5037650;28;20295;-74
2024/03/08 06:47:15;;;;;;;28.73;10.43;;;;;;;3.47;100.00;95911.22;5038226;28;20227;-71
2024/03/08 06:49:41;;;;;;;24.60;9.67;;;;;;;3.58;100.00;95914.47;5037375;28;20267;-71
2024/03/08 06:52:08;;;;;;;22.70;9.43;;;;;;;3.64;100.00;95909.50;5039029;28;20292;-71
2024/03/08 06:54:36;;;;;;;25.63;9.00;;;;;;;3.62;100.00;95906.22;5036538;28;21336;-71
2024/03/08 06:57:03;;;;;;;24.33;8.83;;;;;;;3.34;100.00;95916.72;5037314;28;20213;-71
2024/03/08 06:59:30;;;;;;;23.50;9.23;;;;;;;3.33;100.00;95919.47;5037778;28;20235;-71
2024/03/08 07:01:56;;;;;;;23.23;9.97;;;;;;;3.48;100.00;95913.69;5038407;28;20220;-71
2024/03/08 07:04:26;;;;;;;24.07;8.40;;;;;;;3.28;100.00;95906.06;5035853;28;20232;-71
2024/03/08 07:06:53;;;;;;;23.07;9.40;;;;;;;3.47;100.00;95917.25;5037623;28;20989;-71
2024/03/08 07:09:19;;;;;;;32.93;10.70;;;;;;;3.54;100.00;95918.31;5037441;28;20228;-71
2024/03/08 07:11:51;;;;;;;28.67;9.63;;;;;;;3.76;100.00;95912.75;5037354;28;21397;-71
2024/03/08 07:14:17;;;;;;;24.23;9.70;;;;;;;3.76;100.00;95913.56;5036869;28;20652;-71
2024/03/08 07:16:44;;;;;;;21.33;8.40;;;;;;;3.80;100.00;95909.69;5037059;28;20203;-71
2024/03/08 07:19:12;;;;;;;23.90;9.07;;;;;;;3.80;100.00;95909.69;5037352;28;20207;-71
2024/03/08 07:21:38;;;;;;;23.53;8.77;;;;;;;3.76;100.00;95910.16;5037121;28;20974;-71
2024/03/08 07:24:24;;;;;;;24.47;8.80;;;;;;;3.54;100.00;95912.28;5036711;28;20228;-71
2024/03/08 07:26:52;;;;;;;22.87;9.43;;;;;;;3.60;100.00;95909.91;5037181;28;20204;-71
2024/03/08 07:29:18;;;;;;;26.90;9.60;;;;;;;3.60;100.00;95911.72;5037009;28;20229;-71
2024/03/08 07:31:50;;;;;;;25.90;10.03;;;;;;;3.51;100.00;95912.56;5037513;28;20674;-71
2024/03/08 07:34:17;;;;;;;27.20;9.20;;;;;;;3.60;100.00;95896.09;5036178;28;20243;-71
2024/03/08 07:36:43;;;;;;;26.63;9.53;;;;;;;3.63;100.00;95897.44;5036667;28;20223;-71
2024/03/08 07:39:11;;;;;;;24.13;9.00;;;;;;;3.53;100.00;95895.03;5036197;28;20213;-70
2024/03/08 07:41:39;;;;;;;22.07;8.27;;;;;;;3.49;100.00;95888.44;5036402;28;20207;-71
2024/03/08 07:44:36;;;;;;;27.07;8.80;;;;;;;4.00;100.00;95890.41;5035738;28;20731;-71
2024/03/08 07:47:03;;;;;;;24.07;9.30;;;;;;;3.64;100.00;95891.28;5035677;28;20582;-70
2024/03/08 07:49:30;;;;;;;28.13;10.87;;;;;;;3.56;100.00;95885.13;5036307;28;20271;-71
2024/03/08 07:51:56;;;;;;;17.80;8.20;;;;;;;3.82;100.00;95883.53;5036421;28;20228;-70
2024/03/08 07:54:25;;;;;;;21.50;8.67;;;;;;;3.32;100.00;95879.63;5035252;28;20229;-70
2024/03/08 07:56:52;;;;;;;32.57;10.23;;;;;;;3.58;100.00;95877.16;5035501;28;20210;-70
2024/03/08 07:59:19;;;;;;;21.23;8.70;;;;;;;3.66;100.00;95876.31;5034544;28;21014;-68
2024/03/08 08:01:47;;;;;;;24.90;9.47;;;;;;;3.91;100.00;95875.63;5035067;28;20205;-70
2024/03/08 08:04:15;;;;;;;24.33;9.67;;;;;;;3.70;100.00;95867.25;5033663;28;20274;-69
2024/03/08 08:06:42;;;;;;;25.93;10.10;;;;;;;3.78;100.00;95867.34;5034670;28;20206;-70
2024/03/08 08:09:14;;;;;;;25.27;9.83;;;;;;;3.85;100.00;95865.78;5034922;28;20230;-70
2024/03/08 08:11:40;;;;;;;30.07;10.50;;;;;;;4.02;100.00;95869.41;5034842;28;20623;-68
2024/03/08 08:14:09;;;;;;;32.93;11.00;;;;;;;3.85;100.00;95871.00;5034225;28;20279;-68
2024/03/08 08:16:36;;;;;;;27.00;9.93;;;;;;;4.05;100.00;95869.94;5034399;28;20206;-67
2024/03/08 08:19:07;;;;;;;26.47;8.37;;;;;;;4.10;100.00;95869.47;5035299;28;20323;-67
2024/03/08 08:21:34;;;;;;;21.20;8.43;;;;;;;4.14;100.00;95871.66;5036058;28;20199;-71
2024/03/08 08:24:03;;;;;;;22.73;9.33;;;;;;;4.10;100.00;95864.25;5034748;28;20231;-67
2024/03/08 08:26:29;;;;;;;26.50;10.13;;;;;;;4.10;100.00;95870.31;5034879;28;20215;-68
2024/03/08 08:28:56;;;;;;;29.47;8.80;;;;;;;4.12;100.00;95860.53;5033732;28;20459;-67
2024/03/08 08:31:22;;;;;;;29.43;10.33;;;;;;;4.05;100.00;95867.31;5034503;28;20215;-67
2024/03/08 08:33:49;;;;;;;26.17;9.73;;;;;;;4.38;100.00;95864.09;5034891;28;20715;-67
2024/03/08 08:36:18;;;;;;;30.17;10.53;;;;;;;4.58;100.00;95865.56;5034008;28;20223;-67
2024/03/08 08:38:45;;;;;;;28.90;10.43;;;;;;;4.26;100.00;95860.03;5034303;28;20585;-68
2024/03/08 08:41:12;;;;;;;26.63;10.50;;;;;;;4.52;100.00;95855.72;5034254;28;20211;-67
2024/03/08 08:43:39;;;;;;;25.77;9.43;;;;;;;4.23;100.00;95852.53;5035229;28;20709;-68
2024/03/08 08:46:05;;;;;;;27.97;10.30;;;;;;;4.41;100.00;95848.13;5033296;28;20212;-67
2024/03/08 08:48:32;;;;;;;27.07;10.20;;;;;;;4.42;100.00;95841.94;5033721;28;20207;-67
2024/03/08 08:50:59;;;;;;;27.83;9.57;;;;;;;4.37;100.00;95846.78;5035163;28;20235;-67
2024/03/08 08:53:27;;;;;;;28.33;9.27;;;;;;;4.78;100.00;95839.16;5034712;28;20227;-67
2024/03/08 08:55:54;;;;;;;25.50;9.10;;;;;;;4.57;100.00;95833.44;5033456;28;20232;-67
2024/03/08 08:58:20;;;;;;;23.83;9.03;;;;;;;4.78;100.00;95844.38;5034869;28;20211;-68
2024/03/08 09:00:47;;;;;;;26.27;9.27;;;;;;;4.80;100.00;95839.81;5034623;28;20197;-69
2024/03/08 09:03:14;;;;;;;24.67;9.50;;;;;;;4.87;100.00;95835.63;5033484;28;20238;-70
2024/03/08 09:05:42;;;;;;;21.27;7.60;;;;;;;5.01;100.00;95832.47;5033877;28;20207;-69
2024/03/08 09:08:09;;;;;;;25.17;9.10;;;;;;;5.08;100.00;95836.13;5034753;28;20245;-70
2024/03/08 09:10:39;;;;;;;21.73;8.57;;;;;;;5.11;100.00;95835.81;5033539;28;20222;-70
2024/03/08 09:13:06;;;;;;;21.43;8.73;;;;;;;4.91;100.00;95829.13;5033818;28;20367;-69
2024/03/08 09:15:32;;;;;;;25.93;9.23;;;;;;;4.85;100.00;95832.38;5033984;28;20293;-70
2024/03/08 09:17:59;;;;;;;22.57;9.13;;;;;;;4.82;100.00;95828.28;5036324;28;20216;-70
2024/03/08 09:20:26;;;;;;;25.13;8.97;;;;;;;5.12;100.00;95824.38;5037360;28;20958;-70
2024/03/08 09:22:53;;;;;;;25.30;8.63;;;;;;;5.19;100.00;95820.16;5038068;28;20679;-69
2024/03/08 09:25:19;;;;;;;26.03;10.50;;;;;;;5.31;100.00;95813.69;5037817;28;21055;-70
2024/03/08 09:27:47;;;;;;;23.17;9.60;;;;;;;5.45;100.00;95816.56;5038242;28;20204;-68
2024/03/08 09:30:15;;;;;;;32.97;10.30;;;;;;;5.10;100.00;95811.47;5038267;28;20285;-68
2024/03/08 09:32:43;;;;;;;19.30;8.33;;;;;;;5.29;100.00;95816.47;5038765;28;20220;-68
2024/03/08 09:35:10;;;;;;;23.97;9.50;;;;;;;5.47;100.00;95820.66;5035934;28;20781;-68
2024/03/08 09:37:37;;;;;;;27.90;10.10;;;;;;;5.10;100.00;95815.88;5037832;28;20213;-67
2024/03/08 09:40:09;;;;;;;26.90;9.37;;;;;;;5.37;100.00;95803.44;5038176;28;20204;-68
2024/03/08 09:42:37;;;;;;;24.57;9.00;;;;;;;5.31;100.00;95804.09;5037986;28;20217;-67
2024/03/08 09:45:10;;;;;;;25.77;8.97;;;;;;;5.40;100.00;95800.53;5037400;28;20229;-68
2024/03/08 09:47:38;;;;;;;28.40;9.63;;;;;;;5.64;100.00;95806.69;5037614;28;20576;-67
2024/03/08 09:50:09;;;;;;;28.43;9.57;;;;;;;5.49;100.00;95799.59;5037471;28;20228;-68
2024/03/08 09:52:35;;;;;;;28.80;9.80;;;;;;;5.12;100.00;95798.28;5037888;28;20270;-67
2024/03/08 09:55:02;;;;;;;25.47;9.03;;;;;;;5.19;100.00;95804.50;5037052;28;20235;-69
2024/03/08 09:57:29;;;;;;;31.20;10.33;;;;;;;5.04;100.00;95800.81;5037238;28;20356;-67
2024/03/08 09:59:56;;;;;;;32.23;11.23;;;;;;;4.91;100.00;95800.41;5037410;28;20326;-67
2024/03/08 10:02:24;;;;;;;30.47;10.40;;;;;;;5.29;100.00;95798.19;5039429;28;20211;-68
2024/03/08 10:04:53;;;;;;;32.80;10.30;;;;;;;5.76;100.00;95794.19;5037296;28;20235;-67
2024/03/08 10:07:19;;;;;;;29.60;11.63;;;;;;;5.89;100.00;95805.00;5037965;28;20212;-67
2024/03/08 10:09:50;;;;;;;29.30;10.27;;;;;;;5.86;100.00;95800.09;5037886;28;20225;-67
2024/03/08 10:12:17;;;;;;;30.50;9.87;;;;;;;5.90;100.00;95801.41;5038436;28;20212;-67
2024/03/08 10:14:43;;;;;;;29.33;10.23;;;;;;;5.79;100.00;95801.69;5036032;28;20856;-67
2024/03/08 10:17:10;;;;;;;33.80;11.37;;;;;;;6.07;100.00;95796.88;5037556;28;20296;-67
2024/03/08 10:19:38;;;;;;;28.73;10.47;;;;;;;5.81;100.00;95802.38;5037172;28;20580;-68
2024/03/08 10:22:06;;;;;;;27.13;9.67;;;;;;;5.51;100.00;95800.25;5036624;28;20209;-67
2024/03/08 10:24:34;;;;;;;28.67;10.03;;;;;;;5.42;100.00;95795.97;5036423;28;20233;-67
2024/03/08 10:27:04;;;;;;;27.90;9.07;;;;;;;5.64;100.00;95798.03;5036535;28;20205;-68
2024/03/08 10:29:31;;;;;;;31.03;10.53;;;;;;;5.91;100.00;95793.41;5036249;28;20263;-67
2024/03/08 10:31:57;;;;;;;30.00;9.70;;;;;;;5.96;100.00;95788.53;5036764;28;20484;-68
2024/03/08 10:34:24;;;;;;;28.97;10.20;;;;;;;6.21;100.00;95783.19;5035746;28;20267;-67
2024/03/08 10:36:52;;;;;;;27.87;9.87;;;;;;;6.22;100.00;95779.59;5036358;28;20205;-67
2024/03/08 10:39:23;;;;;;;25.13;8.70;;;;;;;6.20;100.00;95785.97;5036447;28;20213;-67
2024/03/08 10:41:54;;;;;;;31.10;10.13;;;;;;;6.21;100.00;95779.72;5037359;28;20209;-68
2024/03/08 10:44:32;;;;;;;30.37;10.37;;;;;;;6.46;100.00;95773.56;5036281;28;20221;-67
2024/03/08 10:47:04;;;;;;;32.97;10.90;;;;;;;6.84;100.00;95763.22;5037714;28;20203;-67
2024/03/08 10:49:34;;;;;;;31.23;10.43;;;;;;;7.14;100.00;95765.94;5036816;28;20731;-68
2024/03/08 10:52:05;;;;;;;32.63;11.40;;;;;;;6.94;100.00;95769.09;5036846;28;20209;-68
2024/03/08 10:54:32;;;;;;;29.87;10.90;;;;;;;6.77;100.00;95772.69;5036210;28;20279;-68
2024/03/08 10:57:01;;;;;;;26.70;9.60;;;;;;;6.77;100.00;95770.09;5036611;28;20209;-68
2024/03/08 10:59:28;;;;;;;28.97;10.30;;;;;;;6.96;100.00;95761.88;5037527;28;20205;-67
2024/03/08 11:01:55;;;;;;;28.33;10.20;;;;;;;6.93;100.00;95762.22;5036549;28;20204;-67
2024/03/08 11:04:22;;;;;;;22.93;8.43;;;;;;;7.13;100.00;95758.22;5035632;28;20291;-67
2024/03/08 11:06:52;;;;;;;27.97;9.67;;;;;;;7.57;100.00;95747.13;5037114;28;20216;-67
2024/03/08 11:09:30;;;;;;;25.47;9.27;;;;;;;7.75;100.00;95756.38;5037432;28;20267;-67
2024/03/08 11:12:19;;;;;;;29.27;9.63;;;;;;;7.77;100.00;95749.16;5037164;28;20225;-68
2024/03/08 11:14:48;;;;;;;33.53;9.93;;;;;;;8.19;100.00;95739.91;5036970;28;20229;-67
2024/03/08 11:17:16;;;;;;;28.60;9.73;;;;;;;7.79;100.00;95741.94;5036350;28;20236;-68
2024/03/08 11:19:48;;;;;;;23.10;9.40;;;;;;;8.04;100.00;95744.25;5036447;28;20209;-68
2024/03/08 11:22:24;;;;;;;25.73;9.43;;;;;;;7.70;100.00;95734.28;5036521;28;20205;-68
2024/03/08 11:24:52;;;;;;;27.80;10.17;;;;;;;7.97;100.00;95734.63;5036229;28;20229;-68
2024/03/08 11:27:20;;;;;;;23.40;9.07;;;;;;;7.86;100.00;95735.00;5036122;28;20209;-67